Time;durP1;ratioP1;P1;durP2;ratioP2;P2;SDS_P1;SDS_P2;PMS_P1;PMS_P2;Temp;Humidity;BMP_temperature;BMP_pressure;BME280_temperature;BME280_humidity;BME280_pressure;Samples;Min_cycle;Max_cycle;Signal;HPM_P1;HPM_P2
2023/03/22 00:00:28;;;;;;;;;;;;;;;8.30;100.00;96514.06;4984354;28;20020;-73
2023/03/22 00:02:56;;;;;;;;;;;;;;;8.29;100.00;96513.28;4988136;28;19929;-73
2023/03/22 00:05:21;;;;;;;;;;;;;;;8.47;100.00;96510.19;5001091;28;20441;-72
2023/03/22 00:07:49;;;;;;;;;;;;;;;8.54;100.00;96510.34;5006319;28;19922;-73
2023/03/22 00:10:17;;;;;;;;;;;;;;;8.35;100.00;96494.69;4999490;28;19925;-73
2023/03/22 00:12:42;;;;;;;;;;;;;;;8.22;100.00;96496.75;5006934;28;19917;-73
2023/03/22 00:15:08;;;;;;;;;;;;;;;8.22;100.00;96499.50;5000669;28;19917;-73
2023/03/22 00:17:35;;;;;;;;;;;;;;;8.27;100.00;96504.69;5006387;28;19921;-73
2023/03/22 00:20:01;;;;;;;;;;;;;;;8.36;100.00;96504.47;5004006;28;20363;-74
2023/03/22 00:22:27;;;;;;;;;;;;;;;8.39;100.00;96498.28;5001967;28;20501;-74
2023/03/22 00:24:52;;;;;;;;;;;;;;;8.30;100.00;96500.44;5004619;28;19917;-74
2023/03/22 00:27:17;;;;;;;;;;;;;;;8.19;100.00;96502.91;4999724;28;20293;-74
2023/03/22 00:29:43;;;;;;;;;;;;;;;8.12;100.00;96503.56;5004038;28;19928;-74
2023/03/22 00:32:08;;;;;;;;;;;;;;;8.04;100.00;96502.59;4999756;28;19957;-73
2023/03/22 00:34:33;;;;;;;;;;;;;;;8.05;100.00;96497.97;5003699;28;19921;-73
2023/03/22 00:36:58;;;;;;;;;;;;;;;8.20;100.00;96497.13;5003931;28;19917;-73
2023/03/22 00:39:25;;;;;;;;;;;;;;;8.27;100.00;96501.16;4998863;28;19925;-73
2023/03/22 00:41:51;;;;;;;;;;;;;;;8.23;100.00;96492.91;5004037;28;19924;-73
2023/03/22 00:44:16;;;;;;;;;;;;;;;8.19;100.00;96494.75;4998525;28;19917;-73
2023/03/22 00:46:41;;;;;;;;;;;;;;;8.36;100.00;96490.84;5003171;28;19936;-74
2023/03/22 00:49:06;;;;;;;;;;;;;;;8.36;100.00;96491.63;4983961;28;19965;-74
2023/03/22 00:51:32;;;;;;;;;;;;;;;8.16;100.00;96487.28;4995142;28;19928;-74
2023/03/22 00:53:57;;;;;;;;;;;;;;;8.08;100.00;96486.31;4998007;28;19933;-74
2023/03/22 00:56:24;;;;;;;;;;;;;;;8.16;100.00;96481.84;4993664;28;20807;-72
2023/03/22 00:58:50;;;;;;;;;;;;;;;8.24;100.00;96481.59;5002231;28;19921;-74
2023/03/22 01:01:15;;;;;;;;;;;;;;;8.29;100.00;96477.81;4980264;28;19918;-73
2023/03/22 01:03:41;;;;;;;;;;;;;;;8.19;100.00;96479.19;4985459;28;20549;-71
2023/03/22 01:06:07;;;;;;;;;;;;;;;8.06;100.00;96476.91;4995075;28;19921;-71
2023/03/22 01:08:33;;;;;;;;;;;;;;;8.13;100.00;96466.94;5003529;28;20358;-72
2023/03/22 01:10:59;;;;;;;;;;;;;;;8.20;100.00;96467.09;5003782;28;20016;-70
2023/03/22 01:13:24;;;;;;;;;;;;;;;8.21;100.00;96460.50;4998455;28;19957;-72
2023/03/22 01:15:50;;;;;;;;;;;;;;;8.26;100.00;96462.16;5003495;28;19976;-71
2023/03/22 01:18:15;;;;;;;;;;;;;;;8.29;100.00;96460.66;4998762;28;19918;-72
2023/03/22 01:20:40;;;;;;;;;;;;;;;8.24;100.00;96457.06;5001441;28;20404;-72
2023/03/22 01:23:06;;;;;;;;;;;;;;;8.18;100.00;96463.94;4997481;28;19924;-72
2023/03/22 01:25:31;;;;;;;;;;;;;;;8.09;100.00;96473.50;5002400;28;19921;-72
2023/03/22 01:27:56;;;;;;;;;;;;;;;8.04;100.00;96461.69;5004266;28;19921;-71
2023/03/22 01:30:22;;;;;;;;;;;;;;;7.94;100.00;96477.81;4997726;28;19918;-70
2023/03/22 01:32:47;;;;;;;;;;;;;;;7.98;100.00;96465.84;5002100;28;19917;-70
2023/03/22 01:35:13;;;;;;;;;;;;;;;7.80;100.00;96465.44;4997796;28;20015;-71
2023/03/22 01:37:38;;;;;;;;;;;;;;;7.63;100.00;96465.78;4985807;28;19917;-71
2023/03/22 01:40:04;;;;;;;;;;;;;;;7.56;100.00;96458.25;5000474;28;20301;-69
2023/03/22 01:42:29;;;;;;;;;;;;;;;7.49;100.00;96460.00;5003133;28;19921;-73
2023/03/22 01:45:13;;;;;;;;;;;;;;;7.31;100.00;96444.03;5003279;28;19921;-71
2023/03/22 01:47:40;;;;;;;;;;;;;;;7.11;100.00;96448.56;5001382;28;19926;-71
2023/03/22 01:50:07;;;;;;;;;;;;;;;7.00;100.00;96451.00;4995942;28;19921;-71
2023/03/22 01:52:32;;;;;;;;;;;;;;;6.78;100.00;96449.66;4991124;28;19918;-71
2023/03/22 01:54:57;;;;;;;;;;;;;;;6.59;100.00;96444.06;4993524;28;20286;-71
2023/03/22 01:57:23;;;;;;;;;;;;;;;6.44;100.00;96446.38;4996926;28;19920;-71
2023/03/22 01:59:49;;;;;;;;;;;;;;;6.33;100.00;96445.31;5002743;28;19928;-71
2023/03/22 02:02:17;;;;;;;;;;;;;;;6.31;100.00;96442.13;4997031;28;20359;-71
2023/03/22 02:04:44;;;;;;;;;;;;;;;6.45;100.00;96450.72;5002028;28;19917;-71
2023/03/22 02:07:14;;;;;;;;;;;;;;;6.47;100.00;96444.91;4996543;28;20317;-72
2023/03/22 02:09:41;;;;;;;;;;;;;;;6.48;100.00;96449.22;5002854;28;20017;-72
2023/03/22 02:12:12;;;;;;;;;;;;;;;6.46;100.00;96443.31;4997660;28;20294;-71
2023/03/22 02:14:55;;;;;;;;;;;;;;;6.45;100.00;96447.19;5003909;28;19921;-71
2023/03/22 02:17:37;;;;;;;;;;;;;;;6.39;100.00;96449.38;4998635;28;19921;-71
2023/03/22 02:20:21;;;;;;;;;;;;;;;6.44;100.00;96451.81;5002468;28;19917;-71
2023/03/22 02:23:04;;;;;;;;;;;;;;;6.51;100.00;96446.59;5007250;28;20063;-71
2023/03/22 02:25:38;;;;;;;;;;;;;;;6.43;100.00;96447.53;5002121;28;19925;-70
2023/03/22 02:28:12;;;;;;;;;;;;;;;6.27;100.00;96454.84;4998077;28;19926;-70
2023/03/22 02:30:56;;;;;;;;;;;;;;;6.04;100.00;96455.34;5001713;28;19922;-72
2023/03/22 02:33:38;;;;;;;;;;;;;;;5.81;100.00;96446.06;4998453;28;20516;-72
2023/03/22 02:36:04;;;;;;;;;;;;;;;5.62;100.00;96449.34;5000153;28;19984;-71
2023/03/22 02:38:45;;;;;;;;;;;;;;;5.52;100.00;96445.19;4982425;28;20402;-71
2023/03/22 02:41:31;;;;;;;;;;;;;;;5.48;100.00;96439.63;4997998;28;19918;-71
2023/03/22 02:43:59;;;;;;;;;;;;;;;5.49;100.00;96443.94;4961337;28;20378;-72
2023/03/22 02:46:51;;;;;;;;;;;;;;;5.59;100.00;96439.19;4995446;28;20458;-71
2023/03/22 02:49:42;;;;;;;;;;;;;;;5.76;100.00;96441.63;4957171;28;20306;-72
2023/03/22 02:52:09;;;;;;;;;;;;;;;5.76;100.00;96433.50;4983146;28;20260;-71
2023/03/22 02:54:37;;;;;;;;;;;;;;;5.73;100.00;96428.75;4990571;28;19921;-73
2023/03/22 02:57:09;;;;;;;;;;;;;;;5.59;100.00;96434.53;5001078;28;19918;-73
2023/03/22 02:59:37;;;;;;;;;;;;;;;5.37;100.00;96435.78;5005691;28;19960;-74
2023/03/22 03:02:03;;;;;;;;;;;;;;;5.21;100.00;96435.66;5003951;28;19972;-74
2023/03/22 03:04:30;;;;;;;;;;;;;;;5.14;100.00;96438.91;5004860;28;19922;-73
2023/03/22 03:06:59;;;;;;;;;;;;;;;5.09;100.00;96433.72;5005622;28;19926;-74
2023/03/22 03:09:25;;;;;;;;;;;;;;;5.11;100.00;96444.22;5001013;28;19921;-74
2023/03/22 03:11:51;;;;;;;;;;;;;;;5.20;100.00;96439.50;5006421;28;19921;-74
2023/03/22 03:14:20;;;;;;;;;;;;;;;5.23;100.00;96430.69;5000353;28;20341;-74
2023/03/22 03:16:46;;;;;;;;;;;;;;;5.23;100.00;96435.31;5006163;28;19921;-74
2023/03/22 03:19:19;;;;;;;;;;;;;;;5.14;100.00;96433.50;4999192;28;19922;-73
2023/03/22 03:22:00;;;;;;;;;;;;;;;5.12;100.00;96434.97;5005740;28;19921;-73
2023/03/22 03:24:30;;;;;;;;;;;;;;;5.12;100.00;96433.03;4999866;28;19921;-73
2023/03/22 03:27:00;;;;;;;;;;;;;;;4.98;100.00;96436.06;5004724;28;20032;-73
2023/03/22 03:29:37;;;;;;;;;;;;;;;4.94;100.00;96445.22;5001787;28;20323;-73
2023/03/22 03:32:03;;;;;;;;;;;;;;;4.93;100.00;96441.72;4986490;28;20255;-71
2023/03/22 03:34:41;;;;;;;;;;;;;;;4.94;100.00;96450.66;5003461;28;19972;-72
2023/03/22 03:37:13;;;;;;;;;;;;;;;4.90;100.00;96452.47;5000041;28;20005;-71
2023/03/22 03:39:43;;;;;;;;;;;;;;;4.72;100.00;96458.06;5004828;28;20000;-71
2023/03/22 03:42:11;;;;;;;;;;;;;;;4.69;100.00;96456.00;4998994;28;19917;-71
2023/03/22 03:44:37;;;;;;;;;;;;;;;4.66;100.00;96445.81;5004895;28;20337;-73
2023/03/22 03:47:03;;;;;;;;;;;;;;;4.55;100.00;96456.28;5002813;28;19925;-72
2023/03/22 03:49:29;;;;;;;;;;;;;;;4.22;100.00;96446.22;4984949;28;19918;-72
2023/03/22 03:51:54;;;;;;;;;;;;;;;4.04;100.00;96461.03;4998968;28;20381;-73
2023/03/22 03:54:20;;;;;;;;;;;;;;;4.04;100.00;96458.31;4985945;28;19918;-73
2023/03/22 03:56:46;;;;;;;;;;;;;;;3.99;100.00;96461.22;4994997;28;19921;-73
2023/03/22 03:59:14;;;;;;;;;;;;;;;3.97;100.00;96463.47;4990605;28;19948;-73
2023/03/22 04:01:40;;;;;;;;;;;;;;;4.02;100.00;96455.16;5003679;28;19917;-73
2023/03/22 04:04:06;;;;;;;;;;;;;;;4.03;100.00;96454.00;4999980;28;19917;-72
2023/03/22 04:06:33;;;;;;;;;;;;;;;4.06;100.00;96447.16;5015480;28;19990;-72
2023/03/22 04:09:00;;;;;;;;;;;;;;;4.05;100.00;96457.19;5024110;28;19917;-72
2023/03/22 04:11:26;;;;;;;;;;;;;;;4.02;100.00;96455.94;5019535;28;19964;-72
2023/03/22 04:13:52;;;;;;;;;;;;;;;4.09;100.00;96463.53;5006712;28;19917;-72
2023/03/22 04:16:17;;;;;;;;;;;;;;;4.08;100.00;96467.38;5020155;28;19932;-70
2023/03/22 04:18:43;;;;;;;;;;;;;;;4.04;100.00;96454.81;5024502;28;19921;-71
2023/03/22 04:21:10;;;;;;;;;;;;;;;3.93;100.00;96470.66;5018839;28;19917;-71
2023/03/22 04:23:36;;;;;;;;;;;;;;;3.81;100.00;96463.25;5024125;28;19921;-70
2023/03/22 04:26:02;;;;;;;;;;;;;;;3.73;100.00;96464.09;5004009;28;19925;-69
2023/03/22 04:28:28;;;;;;;;;;;;;;;3.65;100.00;96463.00;5020855;28;20397;-71
2023/03/22 04:30:53;;;;;;;;;;;;;;;3.60;100.00;96461.31;5023123;28;19968;-71
2023/03/22 04:33:21;;;;;;;;;;;;;;;3.71;100.00;96466.31;5019845;28;19921;-71
2023/03/22 04:35:46;;;;;;;;;;;;;;;3.59;100.00;96461.63;5022020;28;20382;-72
2023/03/22 04:38:12;;;;;;;;;;;;;;;3.72;100.00;96467.91;5018810;28;19976;-73
2023/03/22 04:40:37;;;;;;;;;;;;;;;3.66;100.00;96467.31;5023440;28;19924;-73
2023/03/22 04:43:03;;;;;;;;;;;;;;;3.65;100.00;96473.84;5022526;28;20372;-72
2023/03/22 04:45:31;;;;;;;;;;;;;;;3.63;100.00;96460.63;5005464;28;20387;-72
2023/03/22 04:47:56;;;;;;;;;;;;;;;3.60;100.00;96463.19;5024418;28;19934;-73
2023/03/22 04:50:21;;;;;;;;;;;;;;;3.58;100.00;96463.53;5018518;28;19925;-72
2023/03/22 04:52:47;;;;;;;;;;;;;;;3.67;100.00;96466.19;4998051;28;19921;-73
2023/03/22 04:55:12;;;;;;;;;;;;;;;3.59;100.00;96457.00;5019267;28;19917;-73
2023/03/22 04:57:37;;;;;;;;;;;;;;;3.60;100.00;96463.19;5022465;28;19917;-73
2023/03/22 05:00:07;;;;;;;;;;;;;;;3.70;100.00;96464.75;5019918;28;20402;-72
2023/03/22 05:02:32;;;;;;;;;;;;;;;3.82;100.00;96471.03;5006638;28;20353;-73
2023/03/22 05:04:57;;;;;;;;;;;;;;;3.88;100.00;96468.94;5020239;28;19921;-73
2023/03/22 05:07:23;;;;;;;;;;;;;;;3.82;100.00;96467.56;5019606;28;20794;-73
2023/03/22 05:09:48;;;;;;;;;;;;;;;3.85;100.00;96466.88;5023617;28;19917;-74
2023/03/22 05:12:13;;;;;;;;;;;;;;;3.76;100.00;96466.94;5019463;28;19921;-74
2023/03/22 05:14:38;;;;;;;;;;;;;;;3.70;100.00;96464.75;5022037;28;19924;-73
2023/03/22 05:17:04;;;;;;;;;;;;;;;3.77;100.00;96473.94;5019081;28;19917;-71
2023/03/22 05:19:29;;;;;;;;;;;;;;;3.79;100.00;96462.78;5023520;28;19921;-73
2023/03/22 05:21:56;;;;;;;;;;;;;;;3.79;100.00;96466.28;5024342;28;20376;-73
2023/03/22 05:24:22;;;;;;;;;;;;;;;3.59;100.00;96465.13;5017946;28;20347;-73
2023/03/22 05:26:52;;;;;;;;;;;;;;;3.67;100.00;96473.53;5022793;28;20385;-74
2023/03/22 05:29:17;;;;;;;;;;;;;;;3.68;100.00;96475.13;5018205;28;19917;-73
2023/03/22 05:31:43;;;;;;;;;;;;;;;3.62;100.00;96469.88;5024293;28;19975;-74
2023/03/22 05:34:08;;;;;;;;;;;;;;;3.77;100.00;96473.16;5020686;28;19928;-74
2023/03/22 05:36:36;;;;;;;;;;;;;;;3.96;100.00;96468.09;5009418;28;20024;-74
2023/03/22 05:39:02;;;;;;;;;;;;;;;4.58;100.00;96465.69;5024303;28;19917;-72
2023/03/22 05:41:30;;;;;;;;;;;;;;;4.80;100.00;96464.53;5018244;28;19929;-72
2023/03/22 05:43:56;;;;;;;;;;;;;;;5.05;100.00;96468.09;5025171;28;20378;-72
2023/03/22 05:46:21;;;;;;;;;;;;;;;5.34;100.00;96472.53;5018650;28;19922;-71
2023/03/22 05:48:46;;;;;;;;;;;;;;;5.93;100.00;96465.09;5009193;28;19929;-72
2023/03/22 05:51:16;;;;;;;;;;;;;;;6.30;100.00;96462.31;5016250;28;19928;-72
2023/03/22 05:53:41;;;;;;;;;;;;;;;6.86;100.00;96475.94;5009463;28;19918;-72
2023/03/22 05:56:08;;;;;;;;;;;;;;;7.19;100.00;96474.84;5018011;28;19962;-73
2023/03/22 05:58:34;;;;;;;;;;;;;;;6.97;100.00;96472.69;5023286;28;20350;-73
2023/03/22 06:01:07;;;;;;;;;;;;;;;6.83;100.00;96473.13;5025429;28;19921;-74
2023/03/22 06:03:32;;;;;;;;;;;;;;;6.64;100.00;96468.31;5023636;28;20354;-72
2023/03/22 06:05:57;;;;;;;;;;;;;;;6.57;100.00;96465.41;5021037;28;19928;-71
2023/03/22 06:08:23;;;;;;;;;;;;;;;7.52;100.00;96476.44;5018237;28;20328;-72
2023/03/22 06:10:51;;;;;;;;;;;;;;;8.88;100.00;96473.19;5022361;28;19921;-72
2023/03/22 06:13:17;;;;;;;;;;;;;;;10.50;97.13;96467.59;5017113;28;19959;-71
2023/03/22 06:15:42;;;;;;;;;;;;;;;11.60;85.16;96471.91;5022366;28;19918;-72
2023/03/22 06:18:08;;;;;;;;;;;;;;;12.09;70.80;96481.72;5000388;28;19928;-73
2023/03/22 06:20:34;;;;;;;;;;;;;;;12.82;67.49;96478.19;5022946;28;20043;-74
2023/03/22 06:22:59;;;;;;;;;;;;;;;13.38;65.34;96479.56;5005179;28;19921;-74
2023/03/22 06:25:24;;;;;;;;;;;;;;;13.51;63.61;96470.94;5017287;28;19978;-75
2023/03/22 06:27:50;;;;;;;;;;;;;;;13.24;63.73;96478.72;5023281;28;19925;-73
2023/03/22 06:30:15;;;;;;;;;;;;;;;13.12;64.18;96477.88;5018697;28;20334;-72
2023/03/22 06:32:40;;;;;;;;;;;;;;;13.93;63.99;96477.63;5022646;28;19924;-73
2023/03/22 06:35:06;;;;;;;;;;;;;;;14.84;57.61;96485.34;5018252;28;19999;-74
2023/03/22 06:37:31;;;;;;;;;;;;;;;14.31;59.18;96476.03;5004997;28;20411;-73
2023/03/22 06:39:57;;;;;;;;;;;;;;;14.88;58.62;96475.06;5022570;28;19960;-72
2023/03/22 06:42:22;;;;;;;;;;;;;;;14.98;57.85;96475.44;5017126;28;20426;-70
2023/03/22 06:44:47;;;;;;;;;;;;;;;15.03;58.99;96477.78;5022014;28;19917;-71
2023/03/22 06:47:12;;;;;;;;;;;;;;;15.15;60.76;96469.03;5015001;28;19940;-71
2023/03/22 06:49:38;;;;;;;;;;;;;;;13.36;66.90;96472.84;4984119;28;19928;-70
2023/03/22 06:52:03;;;;;;;;;;;;;;;13.50;67.03;96475.63;5005736;28;19932;-70
2023/03/22 06:54:29;;;;;;;;;;;;;;;13.40;68.77;96473.66;5004513;28;20469;-71
2023/03/22 06:56:54;;;;;;;;;;;;;;;13.42;67.33;96470.53;5021259;28;19928;-71
2023/03/22 06:59:20;;;;;;;;;;;;;;;14.78;61.59;96475.91;5017402;28;19921;-71
2023/03/22 07:01:45;;;;;;;;;;;;;;;13.92;67.54;96474.09;5023215;28;20016;-71
2023/03/22 07:04:10;;;;;;;;;;;;;;;12.27;72.05;96476.34;5017633;28;19921;-70
2023/03/22 07:06:36;;;;;;;;;;;;;;;11.77;76.44;96475.97;5020785;28;20415;-70
2023/03/22 07:09:01;;;;;;;;;;;;;;;11.96;77.33;96474.97;5022918;28;19943;-71
2023/03/22 07:11:26;;;;;;;;;;;;;;;14.06;68.81;96476.06;5018955;28;19975;-70
2023/03/22 07:13:53;;;;;;;;;;;;;;;14.66;65.57;96488.16;5024141;28;19921;-71
2023/03/22 07:16:18;;;;;;;;;;;;;;;14.85;64.58;96484.13;5020577;28;19924;-72
2023/03/22 07:18:43;;;;;;;;;;;;;;;14.11;69.06;96481.16;5028629;28;19921;-71
2023/03/22 07:21:09;;;;;;;;;;;;;;;14.77;65.04;96490.09;5024375;28;19917;-71
2023/03/22 07:23:34;;;;;;;;;;;;;;;15.60;61.06;96493.22;5023935;28;19920;-71
2023/03/22 07:26:00;;;;;;;;;;;;;;;17.02;55.80;96491.56;5023059;28;20378;-72
2023/03/22 07:28:25;;;;;;;;;;;;;;;17.29;53.52;96495.13;5017917;28;19921;-73
2023/03/22 07:31:11;;;;;;;;;;;;;;;17.58;52.83;96494.75;5003559;28;20325;-72
2023/03/22 07:33:39;;;;;;;;;;;;;;;18.23;51.18;96499.31;5020262;28;19921;-72
2023/03/22 07:36:06;;;;;;;;;;;;;;;18.05;52.00;96503.16;5016754;28;19949;-71
2023/03/22 07:38:32;;;;;;;;;;;;;;;18.02;50.02;96495.66;5020683;28;19917;-72
2023/03/22 07:40:57;;;;;;;;;;;;;;;19.93;46.23;96501.03;5022116;28;19927;-73
2023/03/22 07:43:22;;;;;;;;;;;;;;;21.02;42.95;96496.31;5019682;28;19917;-72
2023/03/22 07:45:48;;;;;;;;;;;;;;;21.51;40.94;96488.50;5024660;28;19952;-72
2023/03/22 07:48:13;;;;;;;;;;;;;;;21.85;40.14;96500.22;5009866;28;19933;-71
2023/03/22 07:50:45;;;;;;;;;;;;;;;21.24;40.23;96496.47;5019747;28;19924;-71
2023/03/22 07:53:11;;;;;;;;;;;;;;;20.83;41.66;96498.00;5013573;28;19918;-72
2023/03/22 07:55:36;;;;;;;;;;;;;;;21.26;39.65;96494.00;5020691;28;19956;-73
2023/03/22 07:58:02;;;;;;;;;;;;;;;22.05;38.77;96502.78;5025411;28;19929;-73
2023/03/22 08:00:27;;;;;;;;;;;;;;;20.52;40.63;96501.19;5012323;28;20473;-73
2023/03/22 08:02:53;;;;;;;;;;;;;;;20.37;40.87;96493.22;5006463;28;19922;-73
2023/03/22 08:05:18;;;;;;;;;;;;;;;20.42;41.24;96503.81;5000126;28;20345;-71
2023/03/22 08:07:43;;;;;;;;;;;;;;;19.75;43.04;96495.91;5029417;28;19971;-72
2023/03/22 08:10:09;;;;;;;;;;;;;;;19.20;44.11;96495.50;5019433;28;20453;-72
2023/03/22 08:12:34;;;;;;;;;;;;;;;19.03;44.38;96491.09;5007384;28;19932;-72
2023/03/22 08:15:00;;;;;;;;;;;;;;;18.87;44.77;96492.59;5025369;28;19966;-73
2023/03/22 08:17:26;;;;;;;;;;;;;;;18.57;44.98;96501.09;5019129;28;19960;-73
2023/03/22 08:19:53;;;;;;;;;;;;;;;17.34;47.32;96499.41;5023808;28;20028;-73
2023/03/22 08:22:23;;;;;;;;;;;;;;;17.38;46.72;96497.41;5018477;28;19917;-73
2023/03/22 08:24:49;;;;;;;;;;;;;;;18.22;46.24;96487.44;5024322;28;20290;-73
2023/03/22 08:27:14;;;;;;;;;;;;;;;17.74;47.10;96499.66;5017173;28;19928;-73
2023/03/22 08:29:40;;;;;;;;;;;;;;;18.98;44.07;96494.38;5023722;28;19940;-72
2023/03/22 08:32:06;;;;;;;;;;;;;;;19.57;42.39;96484.38;5019195;28;19918;-71
2023/03/22 08:34:35;;;;;;;;;;;;;;;19.64;42.88;96484.22;5024076;28;19921;-72
2023/03/22 08:37:02;;;;;;;;;;;;;;;19.85;42.19;96480.19;5021956;28;20365;-73
2023/03/22 08:39:27;;;;;;;;;;;;;;;19.85;41.34;96483.75;5021306;28;19921;-71
2023/03/22 08:41:53;;;;;;;;;;;;;;;19.97;40.70;96481.50;5023121;28;19928;-74
2023/03/22 08:44:18;;;;;;;;;;;;;;;19.58;41.34;96483.19;5018139;28;19917;-73
2023/03/22 08:46:43;;;;;;;;;;;;;;;19.95;39.80;96484.72;5024157;28;19925;-73
2023/03/22 08:49:09;;;;;;;;;;;;;;;19.60;40.90;96484.31;5018133;28;20008;-72
2023/03/22 08:51:34;;;;;;;;;;;;;;;19.85;39.97;96480.97;5004199;28;19985;-72
2023/03/22 08:54:00;;;;;;;;;;;;;;;19.48;41.20;96487.75;5009153;28;19917;-72
2023/03/22 08:56:26;;;;;;;;;;;;;;;17.73;44.12;96478.69;5020613;28;19917;-73
2023/03/22 08:58:52;;;;;;;;;;;;;;;17.45;44.13;96482.66;5022666;28;19929;-71
2023/03/22 09:01:19;;;;;;;;;;;;;;;17.74;45.00;96480.28;5018550;28;19921;-71
2023/03/22 09:03:45;;;;;;;;;;;;;;;18.54;42.57;96484.06;5022046;28;19944;-72
2023/03/22 09:06:10;;;;;;;;;;;;;;;18.85;41.24;96472.03;5018089;28;20370;-71
2023/03/22 09:08:36;;;;;;;;;;;;;;;18.92;41.14;96474.66;5026040;28;19921;-72
2023/03/22 09:11:01;;;;;;;;;;;;;;;17.54;44.25;96478.19;5029419;28;19917;-73
2023/03/22 09:13:29;;;;;;;;;;;;;;;19.12;41.32;96480.19;5021467;28;19917;-73
2023/03/22 09:15:55;;;;;;;;;;;;;;;19.07;41.05;96480.72;5022626;28;20281;-73
2023/03/22 09:18:21;;;;;;;;;;;;;;;19.23;40.28;96469.66;5019342;28;19917;-73
2023/03/22 09:20:46;;;;;;;;;;;;;;;19.67;39.54;96473.03;5023494;28;19917;-73
2023/03/22 09:23:14;;;;;;;;;;;;;;;20.29;38.58;96486.25;5017477;28;20009;-73
2023/03/22 09:25:41;;;;;;;;;;;;;;;19.59;39.19;96468.88;5005607;28;19936;-73
2023/03/22 09:28:07;;;;;;;;;;;;;;;20.34;37.48;96479.41;5017131;28;19940;-71
2023/03/22 09:30:32;;;;;;;;;;;;;;;20.21;38.71;96473.78;5022067;28;19921;-71
2023/03/22 09:32:57;;;;;;;;;;;;;;;20.49;37.85;96471.44;5022194;28;20001;-72
2023/03/22 09:35:22;;;;;;;;;;;;;;;20.94;37.66;96470.66;5016666;28;20367;-72
2023/03/22 09:37:48;;;;;;;;;;;;;;;21.49;36.52;96467.88;5022526;28;19917;-73
2023/03/22 09:40:14;;;;;;;;;;;;;;;21.54;35.65;96476.47;5018076;28;20621;-73
2023/03/22 09:42:43;;;;;;;;;;;;;;;21.86;35.09;96476.69;5023005;28;20016;-73
2023/03/22 09:45:17;;;;;;;;;;;;;;;21.62;35.94;96474.22;5017840;28;19924;-71
2023/03/22 09:47:45;;;;;;;;;;;;;;;20.83;36.30;96479.28;5016500;28;19921;-73
2023/03/22 09:50:12;;;;;;;;;;;;;;;19.47;39.62;96472.31;4996440;28;19922;-72
2023/03/22 09:52:38;;;;;;;;;;;;;;;20.86;37.25;96464.50;5006329;28;19970;-72
2023/03/22 09:55:05;;;;;;;;;;;;;;;21.16;36.55;96466.03;5013518;28;19925;-70
2023/03/22 09:57:32;;;;;;;;;;;;;;;21.54;36.04;96456.97;5003440;28;20452;-72
2023/03/22 10:00:19;;;;;;;;;;;;;;;21.77;35.15;96457.88;5022668;28;20388;-74
2023/03/22 10:02:44;;;;;;;;;;;;;;;21.58;35.39;96459.63;5022288;28;19924;-72
2023/03/22 10:05:15;;;;;;;;;;;;;;;20.77;36.39;96456.03;5015772;28;19917;-73
2023/03/22 10:08:00;;;;;;;;;;;;;;;20.82;36.75;96452.69;5021468;28;19983;-70
2023/03/22 10:10:26;;;;;;;;;;;;;;;20.89;36.66;96449.72;5016860;28;19924;-73
2023/03/22 10:12:58;;;;;;;;;;;;;;;21.49;36.16;96446.38;5021826;28;19921;-72
2023/03/22 10:15:29;;;;;;;;;;;;;;;21.09;35.65;96446.75;5014592;28;20854;-72
2023/03/22 10:17:56;;;;;;;;;;;;;;;21.28;36.09;96438.63;5021761;28;19917;-74
2023/03/22 10:20:51;;;;;;;;;;;;;;;21.87;35.82;96437.22;5016692;28;20563;-73
2023/03/22 10:23:19;;;;;;;;;;;;;;;21.18;36.65;96435.72;5004208;28;19917;-73
2023/03/22 10:25:44;;;;;;;;;;;;;;;21.72;35.32;96425.75;5021687;28;19921;-73
2023/03/22 10:28:28;;;;;;;;;;;;;;;21.72;35.66;96422.97;5016638;28;20232;-73
2023/03/22 10:30:55;;;;;;;;;;;;;;;20.61;37.37;96427.00;5022132;28;19927;-72
2023/03/22 10:33:59;;;;;;;;;;;;;;;21.24;36.14;96422.03;5017253;28;20003;-72
2023/03/22 10:36:29;;;;;;;;;;;;;;;21.48;36.53;96422.53;4955664;28;20218;-73
2023/03/22 10:38:59;;;;;;;;;;;;;;;21.77;35.61;96418.84;4960952;28;19922;-74
2023/03/22 10:41:26;;;;;;;;;;;;;;;20.95;37.52;96411.75;4985246;28;19925;-72
2023/03/22 10:43:53;;;;;;;;;;;;;;;21.24;36.14;96418.47;5021970;28;19917;-72
2023/03/22 10:46:20;;;;;;;;;;;;;;;21.23;36.62;96423.28;5018077;28;19917;-73
2023/03/22 10:48:48;;;;;;;;;;;;;;;20.87;36.43;96406.81;5008424;28;19940;-73
2023/03/22 10:51:19;;;;;;;;;;;;;;;22.60;33.30;96413.25;4996479;28;19925;-72
2023/03/22 10:53:46;;;;;;;;;;;;;;;22.37;33.84;96404.09;5014394;28;20023;-72
2023/03/22 10:56:12;;;;;;;;;;;;;;;21.69;34.87;96407.13;4998387;28;19917;-72
2023/03/22 10:58:38;;;;;;;;;;;;;;;21.82;35.10;96404.31;4993285;28;19922;-74
2023/03/22 11:01:06;;;;;;;;;;;;;;;20.90;36.59;96400.38;4999908;28;19936;-71
2023/03/22 11:03:34;;;;;;;;;;;;;;;20.95;37.52;96389.47;4985108;28;19924;-72
2023/03/22 11:06:01;;;;;;;;;;;;;;;20.44;37.79;96389.34;5001927;28;19923;-73
2023/03/22 11:08:27;;;;;;;;;;;;;;;20.16;38.72;96379.75;4997203;28;19976;-72
2023/03/22 11:10:53;;;;;;;;;;;;;;;19.88;39.78;96379.28;5016727;28;19917;-71
2023/03/22 11:13:21;;;;;;;;;;;;;;;19.44;40.88;96370.41;5015975;28;20016;-72
2023/03/22 11:16:01;;;;;;;;;;;;;;;19.21;41.43;96360.25;5019984;28;19924;-73
2023/03/22 11:18:31;;;;;;;;;;;;;;;18.93;41.95;96365.22;5020227;28;19917;-71
2023/03/22 11:20:58;;;;;;;;;;;;;;;18.79;41.54;96355.19;5024688;28;19960;-72
2023/03/22 11:23:24;;;;;;;;;;;;;;;18.53;42.33;96357.72;5020231;28;20359;-73
2023/03/22 11:25:51;;;;;;;;;;;;;;;17.88;44.03;96355.41;5024995;28;20289;-72
2023/03/22 11:28:18;;;;;;;;;;;;;;;18.24;43.87;96351.97;5020423;28;19925;-72
2023/03/22 11:30:58;;;;;;;;;;;;;;;18.76;42.28;96342.16;5025562;28;19963;-72
2023/03/22 11:33:24;;;;;;;;;;;;;;;18.71;43.31;96356.56;5001474;28;19913;-71
2023/03/22 11:36:00;;;;;;;;;;;;;;;19.18;41.61;96345.25;5024752;28;20289;-72
2023/03/22 11:38:28;;;;;;;;;;;;;;;19.73;40.41;96348.28;5018610;28;19921;-71
2023/03/22 11:40:55;;;;;;;;;;;;;;;19.60;40.79;96339.84;5024527;28;19921;-72
2023/03/22 11:43:23;;;;;;;;;;;;;;;19.52;40.77;96349.59;5019387;28;19925;-72
2023/03/22 11:45:52;;;;;;;;;;;;;;;19.89;39.87;96341.16;5007899;28;19939;-71
2023/03/22 11:48:19;;;;;;;;;;;;;;;20.04;39.85;96337.56;5008412;28;19922;-72
2023/03/22 11:50:45;;;;;;;;;;;;;;;19.76;39.59;96335.53;5022851;28;19972;-73
2023/03/22 11:53:18;;;;;;;;;;;;;;;20.61;37.97;96345.56;5011113;28;19918;-73
2023/03/22 11:55:44;;;;;;;;;;;;;;;21.05;37.78;96342.28;5019805;28;20004;-71
2023/03/22 11:58:21;;;;;;;;;;;;;;;20.62;37.52;96341.56;5019424;28;19917;-71
2023/03/22 12:00:51;;;;;;;;;;;;;;;19.91;39.06;96339.50;5024344;28;19920;-72
2023/03/22 12:03:18;;;;;;;;;;;;;;;19.73;38.40;96336.38;5018549;28;20442;-72
2023/03/22 12:05:46;;;;;;;;;;;;;;;20.18;38.53;96332.81;5024084;28;19921;-72
2023/03/22 12:08:11;;;;;;;;;;;;;;;19.94;38.78;96330.28;5021299;28;19978;-73
2023/03/22 12:10:41;;;;;;;;;;;;;;;20.20;38.40;96322.03;5027223;28;20022;-73
2023/03/22 12:13:15;;;;;;;;;;;;;;;19.84;38.03;96315.47;5022439;28;20271;-72
2023/03/22 12:15:47;;;;;;;;;;;;;;;20.48;38.80;96309.34;5025284;28;19917;-72
2023/03/22 12:18:25;;;;;;;;;;;;;;;20.14;37.96;96315.47;5020725;28;19978;-71
2023/03/22 12:20:53;;;;;;;;;;;;;;;18.47;41.50;96298.41;5029372;28;20293;-73
2023/03/22 12:23:20;;;;;;;;;;;;;;;19.65;40.11;96296.91;5004651;28;19944;-72
2023/03/22 12:25:50;;;;;;;;;;;;;;;19.82;39.62;96297.66;5024154;28;19979;-72
2023/03/22 12:28:21;;;;;;;;;;;;;;;19.76;39.50;96294.63;5019503;28;19940;-72
2023/03/22 12:30:47;;;;;;;;;;;;;;;19.68;39.05;96287.69;5022210;28;19921;-71
2023/03/22 12:33:25;;;;;;;;;;;;;;;20.07;38.56;96287.88;5020108;28;19917;-70
2023/03/22 12:35:54;;;;;;;;;;;;;;;19.51;39.95;96283.38;5024518;28;20019;-71
2023/03/22 12:38:19;;;;;;;;;;;;;;;19.79;38.07;96282.66;5002110;28;20377;-71
2023/03/22 12:40:45;;;;;;;;;;;;;;;19.67;39.31;96275.00;5024292;28;19957;-72
2023/03/22 12:43:24;;;;;;;;;;;;;;;19.93;38.41;96275.13;5018617;28;19964;-71
2023/03/22 12:45:53;;;;;;;;;;;;;;;19.97;36.24;96279.41;5022897;28;19917;-71
2023/03/22 12:48:23;;;;;;;;;;;;;;;20.10;35.54;96268.31;5007377;28;19929;-71
2023/03/22 12:50:51;;;;;;;;;;;;;;;20.30;35.60;96259.78;5003325;28;19928;-71